sensor_id;sensor_type;location;lat;lon;timestamp;P1;durP1;ratioP1;P2;durP2;ratioP2
75289;SDS011;63883;48.996;20.804;2023-05-20T00:00:52;8.93;;;5.68;;
75289;SDS011;63883;48.996;20.804;2023-05-20T00:03:18;9.10;;;5.82;;
75289;SDS011;63883;48.996;20.804;2023-05-20T00:05:45;8.85;;;5.85;;
75289;SDS011;63883;48.996;20.804;2023-05-20T00:08:11;10.55;;;6.43;;
75289;SDS011;63883;48.996;20.804;2023-05-20T00:10:37;11.85;;;5.57;;
75289;SDS011;63883;48.996;20.804;2023-05-20T00:13:03;10.02;;;5.72;;
75289;SDS011;63883;48.996;20.804;2023-05-20T00:15:29;8.05;;;5.65;;
75289;SDS011;63883;48.996;20.804;2023-05-20T00:17:55;8.00;;;5.45;;
75289;SDS011;63883;48.996;20.804;2023-05-20T00:20:20;9.13;;;5.88;;
75289;SDS011;63883;48.996;20.804;2023-05-20T00:22:46;9.43;;;5.93;;
75289;SDS011;63883;48.996;20.804;2023-05-20T00:25:12;9.18;;;6.15;;
75289;SDS011;63883;48.996;20.804;2023-05-20T00:27:40;9.30;;;6.13;;
75289;SDS011;63883;48.996;20.804;2023-05-20T00:30:07;9.27;;;6.07;;
75289;SDS011;63883;48.996;20.804;2023-05-20T00:32:33;10.18;;;6.47;;
75289;SDS011;63883;48.996;20.804;2023-05-20T00:34:59;10.35;;;6.20;;
75289;SDS011;63883;48.996;20.804;2023-05-20T00:37:25;9.68;;;5.70;;
75289;SDS011;63883;48.996;20.804;2023-05-20T00:39:51;9.93;;;6.03;;
75289;SDS011;63883;48.996;20.804;2023-05-20T00:42:24;9.45;;;5.97;;
75289;SDS011;63883;48.996;20.804;2023-05-20T00:44:51;8.70;;;6.10;;
75289;SDS011;63883;48.996;20.804;2023-05-20T00:47:18;8.93;;;5.97;;
75289;SDS011;63883;48.996;20.804;2023-05-20T00:52:13;9.30;;;5.63;;
75289;SDS011;63883;48.996;20.804;2023-05-20T00:54:39;10.48;;;5.90;;
75289;SDS011;63883;48.996;20.804;2023-05-20T00:57:06;11.18;;;6.47;;
75289;SDS011;63883;48.996;20.804;2023-05-20T00:59:33;9.25;;;5.97;;
75289;SDS011;63883;48.996;20.804;2023-05-20T01:02:00;8.07;;;5.88;;
75289;SDS011;63883;48.996;20.804;2023-05-20T01:04:27;9.98;;;6.47;;
75289;SDS011;63883;48.996;20.804;2023-05-20T01:06:53;9.63;;;5.78;;
75289;SDS011;63883;48.996;20.804;2023-05-20T01:09:20;8.43;;;5.72;;
75289;SDS011;63883;48.996;20.804;2023-05-20T01:11:55;9.43;;;6.35;;
75289;SDS011;63883;48.996;20.804;2023-05-20T01:14:28;9.15;;;6.20;;
75289;SDS011;63883;48.996;20.804;2023-05-20T01:16:57;8.95;;;6.05;;
75289;SDS011;63883;48.996;20.804;2023-05-20T01:19:30;9.95;;;5.88;;
75289;SDS011;63883;48.996;20.804;2023-05-20T01:22:02;8.40;;;5.75;;
75289;SDS011;63883;48.996;20.804;2023-05-20T01:24:31;8.32;;;5.53;;
75289;SDS011;63883;48.996;20.804;2023-05-20T01:26:57;9.32;;;5.88;;
75289;SDS011;63883;48.996;20.804;2023-05-20T01:29:23;7.78;;;5.30;;
75289;SDS011;63883;48.996;20.804;2023-05-20T01:31:50;9.25;;;6.22;;
75289;SDS011;63883;48.996;20.804;2023-05-20T01:34:17;8.45;;;5.97;;
75289;SDS011;63883;48.996;20.804;2023-05-20T01:36:44;8.20;;;5.85;;
75289;SDS011;63883;48.996;20.804;2023-05-20T01:39:11;8.32;;;5.35;;
75289;SDS011;63883;48.996;20.804;2023-05-20T01:41:38;8.27;;;5.38;;
75289;SDS011;63883;48.996;20.804;2023-05-20T01:44:05;9.45;;;6.30;;
75289;SDS011;63883;48.996;20.804;2023-05-20T01:46:31;10.13;;;5.93;;
75289;SDS011;63883;48.996;20.804;2023-05-20T01:49:00;8.73;;;5.80;;
75289;SDS011;63883;48.996;20.804;2023-05-20T01:51:26;8.48;;;5.60;;
75289;SDS011;63883;48.996;20.804;2023-05-20T01:53:52;7.57;;;5.47;;
75289;SDS011;63883;48.996;20.804;2023-05-20T01:56:18;7.85;;;5.40;;
75289;SDS011;63883;48.996;20.804;2023-05-20T01:58:43;8.48;;;5.80;;
75289;SDS011;63883;48.996;20.804;2023-05-20T02:01:09;7.80;;;5.22;;
75289;SDS011;63883;48.996;20.804;2023-05-20T02:03:35;7.43;;;5.57;;
75289;SDS011;63883;48.996;20.804;2023-05-20T02:06:00;9.32;;;6.10;;
75289;SDS011;63883;48.996;20.804;2023-05-20T02:08:26;8.10;;;5.88;;
75289;SDS011;63883;48.996;20.804;2023-05-20T02:10:51;9.18;;;5.85;;
75289;SDS011;63883;48.996;20.804;2023-05-20T02:13:17;8.23;;;5.90;;
75289;SDS011;63883;48.996;20.804;2023-05-20T02:15:43;8.57;;;5.65;;
75289;SDS011;63883;48.996;20.804;2023-05-20T02:18:09;9.90;;;5.57;;
75289;SDS011;63883;48.996;20.804;2023-05-20T02:20:36;9.15;;;5.40;;
75289;SDS011;63883;48.996;20.804;2023-05-20T02:23:02;8.32;;;5.75;;
75289;SDS011;63883;48.996;20.804;2023-05-20T02:25:32;8.23;;;5.60;;
75289;SDS011;63883;48.996;20.804;2023-05-20T02:27:58;9.15;;;5.38;;
75289;SDS011;63883;48.996;20.804;2023-05-20T02:30:24;8.38;;;5.68;;
75289;SDS011;63883;48.996;20.804;2023-05-20T02:32:51;8.85;;;5.72;;
75289;SDS011;63883;48.996;20.804;2023-05-20T02:35:17;8.07;;;5.40;;
75289;SDS011;63883;48.996;20.804;2023-05-20T02:37:42;9.15;;;5.68;;
75289;SDS011;63883;48.996;20.804;2023-05-20T02:40:09;9.32;;;6.10;;
75289;SDS011;63883;48.996;20.804;2023-05-20T02:42:36;8.07;;;5.75;;
75289;SDS011;63883;48.996;20.804;2023-05-20T02:45:01;8.30;;;5.63;;
75289;SDS011;63883;48.996;20.804;2023-05-20T02:47:27;8.98;;;5.75;;
75289;SDS011;63883;48.996;20.804;2023-05-20T02:49:53;8.27;;;5.57;;
75289;SDS011;63883;48.996;20.804;2023-05-20T02:52:19;8.27;;;5.85;;
75289;SDS011;63883;48.996;20.804;2023-05-20T02:54:45;8.68;;;5.63;;
75289;SDS011;63883;48.996;20.804;2023-05-20T02:57:11;10.40;;;5.88;;
75289;SDS011;63883;48.996;20.804;2023-05-20T02:59:36;9.35;;;6.13;;
75289;SDS011;63883;48.996;20.804;2023-05-20T03:02:02;11.23;;;6.10;;
75289;SDS011;63883;48.996;20.804;2023-05-20T03:04:28;11.40;;;6.53;;
75289;SDS011;63883;48.996;20.804;2023-05-20T03:06:56;9.55;;;5.65;;
75289;SDS011;63883;48.996;20.804;2023-05-20T03:09:22;9.32;;;6.28;;
75289;SDS011;63883;48.996;20.804;2023-05-20T03:11:49;10.63;;;6.32;;
75289;SDS011;63883;48.996;20.804;2023-05-20T03:14:15;9.40;;;6.00;;
75289;SDS011;63883;48.996;20.804;2023-05-20T03:16:41;9.77;;;5.80;;
75289;SDS011;63883;48.996;20.804;2023-05-20T03:19:06;10.38;;;5.72;;
75289;SDS011;63883;48.996;20.804;2023-05-20T03:21:32;9.20;;;6.30;;
75289;SDS011;63883;48.996;20.804;2023-05-20T03:23:58;10.63;;;5.68;;
75289;SDS011;63883;48.996;20.804;2023-05-20T03:26:24;10.43;;;6.35;;
75289;SDS011;63883;48.996;20.804;2023-05-20T03:28:50;9.50;;;6.18;;
75289;SDS011;63883;48.996;20.804;2023-05-20T03:31:16;8.88;;;6.03;;
75289;SDS011;63883;48.996;20.804;2023-05-20T03:33:41;9.57;;;5.55;;
75289;SDS011;63883;48.996;20.804;2023-05-20T03:36:07;10.95;;;5.68;;
75289;SDS011;63883;48.996;20.804;2023-05-20T03:38:33;8.07;;;5.38;;
75289;SDS011;63883;48.996;20.804;2023-05-20T03:40:59;9.38;;;5.18;;
75289;SDS011;63883;48.996;20.804;2023-05-20T03:43:24;8.75;;;6.10;;
75289;SDS011;63883;48.996;20.804;2023-05-20T03:45:51;8.63;;;5.28;;
75289;SDS011;63883;48.996;20.804;2023-05-20T03:48:17;9.00;;;5.60;;
75289;SDS011;63883;48.996;20.804;2023-05-20T03:50:42;9.18;;;5.75;;
75289;SDS011;63883;48.996;20.804;2023-05-20T03:53:08;8.88;;;6.07;;
75289;SDS011;63883;48.996;20.804;2023-05-20T03:55:34;9.05;;;5.63;;
75289;SDS011;63883;48.996;20.804;2023-05-20T03:57:59;8.05;;;5.53;;
75289;SDS011;63883;48.996;20.804;2023-05-20T04:00:25;8.38;;;5.60;;
75289;SDS011;63883;48.996;20.804;2023-05-20T04:02:51;9.23;;;5.90;;
75289;SDS011;63883;48.996;20.804;2023-05-20T04:05:17;10.98;;;5.88;;
75289;SDS011;63883;48.996;20.804;2023-05-20T04:07:43;8.20;;;5.50;;
75289;SDS011;63883;48.996;20.804;2023-05-20T04:10:09;10.55;;;5.43;;
75289;SDS011;63883;48.996;20.804;2023-05-20T04:12:35;8.38;;;5.55;;
75289;SDS011;63883;48.996;20.804;2023-05-20T04:15:02;9.63;;;5.90;;
75289;SDS011;63883;48.996;20.804;2023-05-20T04:17:29;8.48;;;5.43;;
75289;SDS011;63883;48.996;20.804;2023-05-20T04:19:58;7.70;;;5.47;;
75289;SDS011;63883;48.996;20.804;2023-05-20T04:22:24;8.85;;;5.25;;
75289;SDS011;63883;48.996;20.804;2023-05-20T04:24:50;9.80;;;4.97;;
75289;SDS011;63883;48.996;20.804;2023-05-20T04:27:16;10.02;;;5.70;;
75289;SDS011;63883;48.996;20.804;2023-05-20T04:29:42;9.23;;;6.55;;
75289;SDS011;63883;48.996;20.804;2023-05-20T04:32:16;8.90;;;5.80;;
75289;SDS011;63883;48.996;20.804;2023-05-20T04:34:43;9.13;;;5.75;;
75289;SDS011;63883;48.996;20.804;2023-05-20T04:37:09;7.38;;;5.32;;
75289;SDS011;63883;48.996;20.804;2023-05-20T04:39:36;8.50;;;5.60;;
75289;SDS011;63883;48.996;20.804;2023-05-20T04:42:03;8.23;;;5.43;;
75289;SDS011;63883;48.996;20.804;2023-05-20T04:44:29;7.32;;;4.95;;
75289;SDS011;63883;48.996;20.804;2023-05-20T04:46:55;7.18;;;5.22;;
75289;SDS011;63883;48.996;20.804;2023-05-20T04:49:24;6.97;;;5.07;;
75289;SDS011;63883;48.996;20.804;2023-05-20T04:51:51;7.88;;;4.95;;
75289;SDS011;63883;48.996;20.804;2023-05-20T04:54:17;7.93;;;5.07;;
75289;SDS011;63883;48.996;20.804;2023-05-20T04:56:44;8.25;;;5.18;;
75289;SDS011;63883;48.996;20.804;2023-05-20T04:59:11;7.85;;;5.18;;
75289;SDS011;63883;48.996;20.804;2023-05-20T05:01:37;7.80;;;5.22;;
75289;SDS011;63883;48.996;20.804;2023-05-20T05:04:03;7.40;;;5.28;;
75289;SDS011;63883;48.996;20.804;2023-05-20T05:06:28;9.85;;;5.65;;
75289;SDS011;63883;48.996;20.804;2023-05-20T05:08:55;7.78;;;5.20;;
75289;SDS011;63883;48.996;20.804;2023-05-20T05:11:20;8.43;;;5.53;;
75289;SDS011;63883;48.996;20.804;2023-05-20T05:13:46;8.88;;;5.47;;
75289;SDS011;63883;48.996;20.804;2023-05-20T05:16:12;8.65;;;5.50;;
75289;SDS011;63883;48.996;20.804;2023-05-20T05:18:37;9.27;;;5.07;;
75289;SDS011;63883;48.996;20.804;2023-05-20T05:21:04;9.50;;;5.25;;
75289;SDS011;63883;48.996;20.804;2023-05-20T05:23:31;7.22;;;5.07;;
75289;SDS011;63883;48.996;20.804;2023-05-20T05:25:57;8.93;;;5.50;;
75289;SDS011;63883;48.996;20.804;2023-05-20T05:28:23;8.18;;;5.22;;
75289;SDS011;63883;48.996;20.804;2023-05-20T05:30:49;7.55;;;5.20;;
75289;SDS011;63883;48.996;20.804;2023-05-20T05:33:15;8.45;;;5.40;;
75289;SDS011;63883;48.996;20.804;2023-05-20T05:35:41;6.13;;;4.47;;
75289;SDS011;63883;48.996;20.804;2023-05-20T05:38:07;8.07;;;4.90;;
75289;SDS011;63883;48.996;20.804;2023-05-20T05:40:33;7.40;;;4.43;;
75289;SDS011;63883;48.996;20.804;2023-05-20T05:42:59;6.53;;;4.63;;
75289;SDS011;63883;48.996;20.804;2023-05-20T05:45:24;7.38;;;4.95;;
75289;SDS011;63883;48.996;20.804;2023-05-20T05:47:50;7.10;;;4.60;;
75289;SDS011;63883;48.996;20.804;2023-05-20T05:50:16;8.18;;;4.82;;
75289;SDS011;63883;48.996;20.804;2023-05-20T05:52:42;7.55;;;5.00;;
75289;SDS011;63883;48.996;20.804;2023-05-20T05:55:08;10.02;;;6.95;;
75289;SDS011;63883;48.996;20.804;2023-05-20T05:57:35;7.03;;;4.82;;
75289;SDS011;63883;48.996;20.804;2023-05-20T06:00:00;8.38;;;5.80;;
75289;SDS011;63883;48.996;20.804;2023-05-20T06:02:26;8.73;;;5.72;;
75289;SDS011;63883;48.996;20.804;2023-05-20T06:04:52;8.80;;;5.13;;
75289;SDS011;63883;48.996;20.804;2023-05-20T06:07:18;7.78;;;5.35;;
75289;SDS011;63883;48.996;20.804;2023-05-20T06:09:43;8.32;;;4.95;;
75289;SDS011;63883;48.996;20.804;2023-05-20T06:12:10;7.95;;;4.97;;
75289;SDS011;63883;48.996;20.804;2023-05-20T06:14:36;11.13;;;7.82;;
75289;SDS011;63883;48.996;20.804;2023-05-20T06:17:02;8.77;;;5.45;;
75289;SDS011;63883;48.996;20.804;2023-05-20T06:19:28;9.25;;;5.97;;
75289;SDS011;63883;48.996;20.804;2023-05-20T06:21:55;9.20;;;6.10;;
75289;SDS011;63883;48.996;20.804;2023-05-20T06:24:21;12.32;;;9.60;;
75289;SDS011;63883;48.996;20.804;2023-05-20T06:26:47;10.07;;;6.20;;
75289;SDS011;63883;48.996;20.804;2023-05-20T06:29:14;9.18;;;5.63;;
75289;SDS011;63883;48.996;20.804;2023-05-20T06:31:40;8.82;;;5.40;;
75289;SDS011;63883;48.996;20.804;2023-05-20T06:34:05;8.15;;;5.15;;
75289;SDS011;63883;48.996;20.804;2023-05-20T06:36:31;8.15;;;5.32;;
75289;SDS011;63883;48.996;20.804;2023-05-20T06:38:57;8.55;;;5.53;;
75289;SDS011;63883;48.996;20.804;2023-05-20T06:41:22;7.65;;;5.28;;
75289;SDS011;63883;48.996;20.804;2023-05-20T06:43:48;11.27;;;5.70;;
75289;SDS011;63883;48.996;20.804;2023-05-20T06:46:14;9.52;;;6.38;;
75289;SDS011;63883;48.996;20.804;2023-05-20T06:48:39;10.02;;;5.50;;
75289;SDS011;63883;48.996;20.804;2023-05-20T06:51:08;8.82;;;5.45;;
75289;SDS011;63883;48.996;20.804;2023-05-20T06:53:34;9.40;;;5.82;;
75289;SDS011;63883;48.996;20.804;2023-05-20T06:56:00;9.05;;;5.47;;
75289;SDS011;63883;48.996;20.804;2023-05-20T06:58:27;9.70;;;5.55;;
75289;SDS011;63883;48.996;20.804;2023-05-20T07:00:52;8.63;;;6.10;;
75289;SDS011;63883;48.996;20.804;2023-05-20T07:03:18;10.10;;;6.20;;
75289;SDS011;63883;48.996;20.804;2023-05-20T07:05:44;10.13;;;6.03;;
75289;SDS011;63883;48.996;20.804;2023-05-20T07:08:09;7.45;;;5.22;;
75289;SDS011;63883;48.996;20.804;2023-05-20T07:10:35;9.40;;;5.53;;
75289;SDS011;63883;48.996;20.804;2023-05-20T07:13:01;8.80;;;5.72;;
75289;SDS011;63883;48.996;20.804;2023-05-20T07:15:27;8.90;;;5.80;;
75289;SDS011;63883;48.996;20.804;2023-05-20T07:17:53;8.10;;;5.50;;
75289;SDS011;63883;48.996;20.804;2023-05-20T07:20:19;8.85;;;5.97;;
75289;SDS011;63883;48.996;20.804;2023-05-20T07:22:44;7.72;;;5.13;;
75289;SDS011;63883;48.996;20.804;2023-05-20T07:25:10;6.93;;;5.30;;
75289;SDS011;63883;48.996;20.804;2023-05-20T07:27:36;9.02;;;6.40;;
75289;SDS011;63883;48.996;20.804;2023-05-20T07:30:02;8.52;;;5.47;;
75289;SDS011;63883;48.996;20.804;2023-05-20T07:32:28;7.93;;;6.05;;
75289;SDS011;63883;48.996;20.804;2023-05-20T07:34:53;9.00;;;6.10;;
75289;SDS011;63883;48.996;20.804;2023-05-20T07:37:19;8.35;;;5.63;;
75289;SDS011;63883;48.996;20.804;2023-05-20T07:39:45;8.60;;;5.90;;
75289;SDS011;63883;48.996;20.804;2023-05-20T07:42:10;7.10;;;5.47;;
75289;SDS011;63883;48.996;20.804;2023-05-20T07:44:36;8.73;;;6.05;;
75289;SDS011;63883;48.996;20.804;2023-05-20T07:47:02;9.10;;;6.05;;
75289;SDS011;63883;48.996;20.804;2023-05-20T07:49:27;8.10;;;6.15;;
75289;SDS011;63883;48.996;20.804;2023-05-20T07:51:53;7.85;;;5.55;;
75289;SDS011;63883;48.996;20.804;2023-05-20T07:54:19;8.23;;;5.53;;
75289;SDS011;63883;48.996;20.804;2023-05-20T07:56:44;7.72;;;5.75;;
75289;SDS011;63883;48.996;20.804;2023-05-20T07:59:10;8.18;;;6.05;;
75289;SDS011;63883;48.996;20.804;2023-05-20T08:01:36;7.63;;;5.85;;
75289;SDS011;63883;48.996;20.804;2023-05-20T08:04:02;7.60;;;5.43;;
75289;SDS011;63883;48.996;20.804;2023-05-20T08:06:28;9.13;;;5.80;;
75289;SDS011;63883;48.996;20.804;2023-05-20T08:08:53;8.10;;;5.97;;
75289;SDS011;63883;48.996;20.804;2023-05-20T08:11:19;9.50;;;5.82;;
75289;SDS011;63883;48.996;20.804;2023-05-20T08:13:48;8.43;;;5.88;;
75289;SDS011;63883;48.996;20.804;2023-05-20T08:16:14;7.85;;;5.63;;
75289;SDS011;63883;48.996;20.804;2023-05-20T08:18:40;9.68;;;5.63;;
75289;SDS011;63883;48.996;20.804;2023-05-20T08:21:06;9.10;;;6.00;;
75289;SDS011;63883;48.996;20.804;2023-05-20T08:23:35;8.30;;;6.28;;
75289;SDS011;63883;48.996;20.804;2023-05-20T08:26:01;7.88;;;5.65;;
75289;SDS011;63883;48.996;20.804;2023-05-20T08:28:28;8.07;;;5.82;;
75289;SDS011;63883;48.996;20.804;2023-05-20T08:30:54;9.15;;;6.43;;
75289;SDS011;63883;48.996;20.804;2023-05-20T08:33:20;7.65;;;5.90;;
75289;SDS011;63883;48.996;20.804;2023-05-20T08:35:47;7.90;;;6.00;;
75289;SDS011;63883;48.996;20.804;2023-05-20T08:38:13;7.35;;;6.07;;
75289;SDS011;63883;48.996;20.804;2023-05-20T08:40:39;8.38;;;6.18;;
75289;SDS011;63883;48.996;20.804;2023-05-20T08:43:05;7.85;;;5.47;;
75289;SDS011;63883;48.996;20.804;2023-05-20T08:45:31;7.88;;;6.45;;
75289;SDS011;63883;48.996;20.804;2023-05-20T08:47:58;7.43;;;5.90;;
75289;SDS011;63883;48.996;20.804;2023-05-20T08:50:25;8.68;;;6.40;;
75289;SDS011;63883;48.996;20.804;2023-05-20T08:52:51;8.93;;;5.80;;
75289;SDS011;63883;48.996;20.804;2023-05-20T08:55:24;8.82;;;6.85;;
75289;SDS011;63883;48.996;20.804;2023-05-20T08:58:14;8.18;;;5.82;;
75289;SDS011;63883;48.996;20.804;2023-05-20T09:00:40;9.32;;;6.57;;
75289;SDS011;63883;48.996;20.804;2023-05-20T09:03:06;8.30;;;6.13;;
75289;SDS011;63883;48.996;20.804;2023-05-20T09:05:32;8.45;;;6.25;;
75289;SDS011;63883;48.996;20.804;2023-05-20T09:08:08;9.13;;;6.25;;
75289;SDS011;63883;48.996;20.804;2023-05-20T09:10:35;7.95;;;6.43;;
75289;SDS011;63883;48.996;20.804;2023-05-20T09:13:03;8.52;;;6.30;;
75289;SDS011;63883;48.996;20.804;2023-05-20T09:15:30;7.78;;;6.03;;
75289;SDS011;63883;48.996;20.804;2023-05-20T09:18:00;9.02;;;6.60;;
75289;SDS011;63883;48.996;20.804;2023-05-20T09:20:26;8.00;;;6.28;;
75289;SDS011;63883;48.996;20.804;2023-05-20T09:22:59;8.77;;;6.38;;
75289;SDS011;63883;48.996;20.804;2023-05-20T09:25:27;8.25;;;6.30;;
75289;SDS011;63883;48.996;20.804;2023-05-20T09:27:54;7.78;;;5.95;;
75289;SDS011;63883;48.996;20.804;2023-05-20T09:30:20;6.88;;;6.03;;
75289;SDS011;63883;48.996;20.804;2023-05-20T09:32:56;7.15;;;5.75;;
75289;SDS011;63883;48.996;20.804;2023-05-20T09:35:23;7.45;;;5.50;;
75289;SDS011;63883;48.996;20.804;2023-05-20T09:37:51;9.35;;;5.75;;
75289;SDS011;63883;48.996;20.804;2023-05-20T09:40:20;8.80;;;6.28;;
75289;SDS011;63883;48.996;20.804;2023-05-20T09:42:50;8.48;;;5.88;;
75289;SDS011;63883;48.996;20.804;2023-05-20T09:45:18;7.40;;;5.90;;
75289;SDS011;63883;48.996;20.804;2023-05-20T09:47:45;6.60;;;5.60;;
75289;SDS011;63883;48.996;20.804;2023-05-20T09:50:11;7.35;;;5.43;;
75289;SDS011;63883;48.996;20.804;2023-05-20T09:52:39;6.63;;;5.25;;
75289;SDS011;63883;48.996;20.804;2023-05-20T09:55:05;6.85;;;5.22;;
75289;SDS011;63883;48.996;20.804;2023-05-20T09:57:35;6.38;;;5.20;;
75289;SDS011;63883;48.996;20.804;2023-05-20T10:00:02;8.63;;;5.53;;
75289;SDS011;63883;48.996;20.804;2023-05-20T10:02:33;6.07;;;5.15;;
75289;SDS011;63883;48.996;20.804;2023-05-20T10:05:00;7.07;;;5.65;;
75289;SDS011;63883;48.996;20.804;2023-05-20T10:07:45;8.52;;;5.63;;
75289;SDS011;63883;48.996;20.804;2023-05-20T10:10:36;7.78;;;5.68;;
75289;SDS011;63883;48.996;20.804;2023-05-20T10:21:29;8.38;;;5.72;;
75289;SDS011;63883;48.996;20.804;2023-05-20T10:24:04;6.40;;;5.60;;
75289;SDS011;63883;48.996;20.804;2023-05-20T10:26:34;6.50;;;5.70;;
75289;SDS011;63883;48.996;20.804;2023-05-20T10:29:16;6.13;;;5.53;;
75289;SDS011;63883;48.996;20.804;2023-05-20T10:31:49;6.32;;;5.72;;
75289;SDS011;63883;48.996;20.804;2023-05-20T10:36:46;5.90;;;5.30;;
75289;SDS011;63883;48.996;20.804;2023-05-20T10:39:29;7.88;;;6.22;;
75289;SDS011;63883;48.996;20.804;2023-05-20T10:42:07;6.95;;;5.47;;
75289;SDS011;63883;48.996;20.804;2023-05-20T10:44:44;6.63;;;5.93;;
75289;SDS011;63883;48.996;20.804;2023-05-20T10:47:11;7.18;;;6.20;;
75289;SDS011;63883;48.996;20.804;2023-05-20T10:49:44;6.97;;;6.28;;
75289;SDS011;63883;48.996;20.804;2023-05-20T10:52:11;6.93;;;5.90;;
75289;SDS011;63883;48.996;20.804;2023-05-20T10:54:47;7.40;;;6.32;;
75289;SDS011;63883;48.996;20.804;2023-05-20T10:57:19;7.07;;;5.97;;
75289;SDS011;63883;48.996;20.804;2023-05-20T10:59:45;6.43;;;5.50;;
75289;SDS011;63883;48.996;20.804;2023-05-20T11:02:11;7.32;;;6.38;;
75289;SDS011;63883;48.996;20.804;2023-05-20T11:04:43;7.10;;;6.20;;
75289;SDS011;63883;48.996;20.804;2023-05-20T11:07:09;7.10;;;6.40;;
75289;SDS011;63883;48.996;20.804;2023-05-20T11:09:35;8.07;;;6.43;;
75289;SDS011;63883;48.996;20.804;2023-05-20T11:12:01;7.50;;;6.43;;
75289;SDS011;63883;48.996;20.804;2023-05-20T11:14:27;6.95;;;6.15;;
75289;SDS011;63883;48.996;20.804;2023-05-20T11:16:57;6.72;;;6.10;;
75289;SDS011;63883;48.996;20.804;2023-05-20T11:19:24;8.38;;;6.88;;
75289;SDS011;63883;48.996;20.804;2023-05-20T11:21:51;7.47;;;6.55;;
75289;SDS011;63883;48.996;20.804;2023-05-20T11:24:24;7.28;;;6.25;;
75289;SDS011;63883;48.996;20.804;2023-05-20T11:26:51;9.30;;;6.50;;
75289;SDS011;63883;48.996;20.804;2023-05-20T11:29:17;9.30;;;6.13;;
75289;SDS011;63883;48.996;20.804;2023-05-20T11:31:44;7.65;;;6.32;;
75289;SDS011;63883;48.996;20.804;2023-05-20T11:34:11;8.57;;;6.63;;
75289;SDS011;63883;48.996;20.804;2023-05-20T11:36:41;8.80;;;6.25;;
75289;SDS011;63883;48.996;20.804;2023-05-20T11:39:08;6.82;;;6.10;;
75289;SDS011;63883;48.996;20.804;2023-05-20T11:41:35;7.88;;;6.40;;
75289;SDS011;63883;48.996;20.804;2023-05-20T11:44:01;7.95;;;6.30;;
75289;SDS011;63883;48.996;20.804;2023-05-20T11:46:27;8.55;;;6.28;;
75289;SDS011;63883;48.996;20.804;2023-05-20T11:48:53;7.32;;;6.38;;
75289;SDS011;63883;48.996;20.804;2023-05-20T11:51:23;6.80;;;6.10;;
75289;SDS011;63883;48.996;20.804;2023-05-20T11:53:52;6.85;;;6.15;;
75289;SDS011;63883;48.996;20.804;2023-05-20T11:56:23;9.88;;;6.43;;
75289;SDS011;63883;48.996;20.804;2023-05-20T11:58:48;7.03;;;6.00;;
75289;SDS011;63883;48.996;20.804;2023-05-20T12:01:14;10.07;;;6.97;;
75289;SDS011;63883;48.996;20.804;2023-05-20T12:03:40;8.40;;;6.55;;
75289;SDS011;63883;48.996;20.804;2023-05-20T12:06:06;7.93;;;6.47;;
75289;SDS011;63883;48.996;20.804;2023-05-20T12:08:32;7.85;;;6.35;;
75289;SDS011;63883;48.996;20.804;2023-05-20T12:10:57;10.18;;;6.53;;
75289;SDS011;63883;48.996;20.804;2023-05-20T12:13:23;7.55;;;6.20;;
75289;SDS011;63883;48.996;20.804;2023-05-20T12:15:48;7.55;;;6.40;;
75289;SDS011;63883;48.996;20.804;2023-05-20T12:18:14;8.45;;;6.82;;
75289;SDS011;63883;48.996;20.804;2023-05-20T12:20:41;8.80;;;6.10;;
75289;SDS011;63883;48.996;20.804;2023-05-20T12:23:07;6.53;;;5.82;;
75289;SDS011;63883;48.996;20.804;2023-05-20T12:25:32;8.30;;;6.35;;
75289;SDS011;63883;48.996;20.804;2023-05-20T12:27:59;6.82;;;6.13;;
75289;SDS011;63883;48.996;20.804;2023-05-20T12:32:51;8.85;;;6.00;;
75289;SDS011;63883;48.996;20.804;2023-05-20T12:38:01;7.53;;;6.50;;
75289;SDS011;63883;48.996;20.804;2023-05-20T12:40:27;7.63;;;6.38;;
75289;SDS011;63883;48.996;20.804;2023-05-20T12:42:53;6.97;;;6.28;;
75289;SDS011;63883;48.996;20.804;2023-05-20T12:45:18;9.50;;;6.28;;
75289;SDS011;63883;48.996;20.804;2023-05-20T12:47:44;8.70;;;6.63;;
75289;SDS011;63883;48.996;20.804;2023-05-20T12:50:10;7.45;;;6.35;;
75289;SDS011;63883;48.996;20.804;2023-05-20T12:52:36;7.18;;;5.78;;
75289;SDS011;63883;48.996;20.804;2023-05-20T12:55:01;7.57;;;5.80;;
75289;SDS011;63883;48.996;20.804;2023-05-20T12:57:28;7.90;;;6.20;;
75289;SDS011;63883;48.996;20.804;2023-05-20T12:59:53;7.35;;;6.57;;
75289;SDS011;63883;48.996;20.804;2023-05-20T13:02:19;8.57;;;6.65;;
75289;SDS011;63883;48.996;20.804;2023-05-20T13:04:45;8.20;;;6.78;;
75289;SDS011;63883;48.996;20.804;2023-05-20T13:07:11;8.38;;;6.93;;
75289;SDS011;63883;48.996;20.804;2023-05-20T13:09:36;10.30;;;6.80;;
75289;SDS011;63883;48.996;20.804;2023-05-20T13:12:02;6.70;;;6.03;;
75289;SDS011;63883;48.996;20.804;2023-05-20T13:14:28;7.20;;;6.47;;
75289;SDS011;63883;48.996;20.804;2023-05-20T13:16:54;7.80;;;6.90;;
75289;SDS011;63883;48.996;20.804;2023-05-20T13:19:23;9.35;;;7.07;;
75289;SDS011;63883;48.996;20.804;2023-05-20T13:21:49;9.85;;;7.13;;
75289;SDS011;63883;48.996;20.804;2023-05-20T13:24:16;9.20;;;7.82;;
75289;SDS011;63883;48.996;20.804;2023-05-20T13:26:42;11.13;;;7.80;;
75289;SDS011;63883;48.996;20.804;2023-05-20T13:29:08;9.70;;;7.35;;
75289;SDS011;63883;48.996;20.804;2023-05-20T13:31:34;10.13;;;7.45;;
75289;SDS011;63883;48.996;20.804;2023-05-20T13:34:00;11.75;;;7.75;;
75289;SDS011;63883;48.996;20.804;2023-05-20T13:36:26;8.77;;;6.70;;
75289;SDS011;63883;48.996;20.804;2023-05-20T13:38:51;9.38;;;7.45;;
75289;SDS011;63883;48.996;20.804;2023-05-20T13:41:17;8.13;;;6.72;;
75289;SDS011;63883;48.996;20.804;2023-05-20T13:43:43;8.93;;;7.15;;
75289;SDS011;63883;48.996;20.804;2023-05-20T13:46:09;8.18;;;6.75;;
75289;SDS011;63883;48.996;20.804;2023-05-20T13:48:35;7.88;;;6.90;;
75289;SDS011;63883;48.996;20.804;2023-05-20T13:51:01;8.88;;;7.20;;
75289;SDS011;63883;48.996;20.804;2023-05-20T13:53:27;8.18;;;7.28;;
75289;SDS011;63883;48.996;20.804;2023-05-20T13:55:53;9.85;;;7.32;;
75289;SDS011;63883;48.996;20.804;2023-05-20T13:58:19;9.48;;;7.55;;
75289;SDS011;63883;48.996;20.804;2023-05-20T14:00:44;11.02;;;7.55;;
75289;SDS011;63883;48.996;20.804;2023-05-20T14:03:10;9.88;;;7.13;;
75289;SDS011;63883;48.996;20.804;2023-05-20T14:05:36;9.73;;;7.38;;
75289;SDS011;63883;48.996;20.804;2023-05-20T14:08:01;10.30;;;7.50;;
75289;SDS011;63883;48.996;20.804;2023-05-20T14:10:28;10.63;;;7.43;;
75289;SDS011;63883;48.996;20.804;2023-05-20T14:12:53;8.70;;;6.85;;
75289;SDS011;63883;48.996;20.804;2023-05-20T14:15:21;9.45;;;7.55;;
75289;SDS011;63883;48.996;20.804;2023-05-20T14:17:47;10.75;;;7.47;;
75289;SDS011;63883;48.996;20.804;2023-05-20T14:20:14;9.95;;;7.35;;
75289;SDS011;63883;48.996;20.804;2023-05-20T14:22:40;8.95;;;7.70;;
75289;SDS011;63883;48.996;20.804;2023-05-20T14:25:06;9.90;;;7.78;;
75289;SDS011;63883;48.996;20.804;2023-05-20T14:27:32;11.43;;;8.10;;
75289;SDS011;63883;48.996;20.804;2023-05-20T14:29:59;11.35;;;8.13;;
75289;SDS011;63883;48.996;20.804;2023-05-20T14:32:25;12.80;;;8.20;;
75289;SDS011;63883;48.996;20.804;2023-05-20T14:34:50;10.35;;;7.78;;
75289;SDS011;63883;48.996;20.804;2023-05-20T14:37:17;10.23;;;8.23;;
75289;SDS011;63883;48.996;20.804;2023-05-20T14:39:43;12.55;;;8.32;;
75289;SDS011;63883;48.996;20.804;2023-05-20T14:42:10;12.27;;;8.63;;
75289;SDS011;63883;48.996;20.804;2023-05-20T14:44:36;14.18;;;8.73;;
75289;SDS011;63883;48.996;20.804;2023-05-20T14:47:02;12.13;;;8.27;;
75289;SDS011;63883;48.996;20.804;2023-05-20T14:49:28;12.70;;;9.07;;